createdAt,value
2023-02-22T00:00:42.606Z,20.62
2023-02-22T00:03:12.531Z,20.63
2023-02-22T00:05:40.424Z,20.66
2023-02-22T00:08:11.582Z,20.68
2023-02-22T00:10:38.728Z,20.68
2023-02-22T00:13:07.585Z,20.70
2023-02-22T00:15:35.011Z,20.69
2023-02-22T00:18:02.522Z,20.71
2023-02-22T00:20:29.351Z,20.72
2023-02-22T00:22:56.349Z,20.69
2023-02-22T00:25:24.593Z,20.70
2023-02-22T00:27:53.132Z,20.68
2023-02-22T00:30:21.768Z,20.67
2023-02-22T00:32:49.583Z,20.64
2023-02-22T00:35:17.524Z,20.62
2023-02-22T00:37:44.441Z,20.61
2023-02-22T00:40:12.843Z,20.61
2023-02-22T00:42:40.223Z,20.60
2023-02-22T00:45:07.826Z,20.58
2023-02-22T00:47:34.842Z,20.57
2023-02-22T00:50:02.008Z,20.58
2023-02-22T00:52:29.214Z,20.56
2023-02-22T00:54:56.456Z,20.56
2023-02-22T00:57:23.443Z,20.52
2023-02-22T00:59:50.810Z,20.53
2023-02-22T01:02:18.243Z,20.51
2023-02-22T01:04:45.406Z,20.51
2023-02-22T01:07:12.569Z,20.51
2023-02-22T01:09:40.142Z,20.50
2023-02-22T01:12:08.343Z,20.48
2023-02-22T01:14:35.351Z,20.49
2023-02-22T01:17:02.345Z,20.42
2023-02-22T01:19:29.342Z,20.45
2023-02-22T01:21:56.453Z,20.45
2023-02-22T01:24:23.467Z,20.40
2023-02-22T01:26:51.543Z,20.38
2023-02-22T01:29:19.026Z,20.35
2023-02-22T01:31:51.680Z,20.32
2023-02-22T01:34:19.039Z,20.29
2023-02-22T01:36:46.151Z,20.26
2023-02-22T01:39:13.162Z,20.24
2023-02-22T01:41:40.159Z,20.22
2023-02-22T01:44:10.281Z,20.21
2023-02-22T01:46:37.275Z,20.19
2023-02-22T01:49:07.048Z,20.18
2023-02-22T01:51:38.236Z,20.16
2023-02-22T01:54:08.357Z,20.15
2023-02-22T01:56:37.184Z,20.15
2023-02-22T01:59:07.060Z,20.13
2023-02-22T02:01:35.727Z,20.12
2023-02-22T02:04:06.241Z,20.10
2023-02-22T02:06:34.304Z,20.07
2023-02-22T02:09:05.195Z,20.05
2023-02-22T02:11:32.869Z,20.03
2023-02-22T02:14:00.063Z,20.01
2023-02-22T02:16:35.795Z,20.00
2023-02-22T02:19:04.068Z,19.97
2023-02-22T02:21:34.065Z,19.96
2023-02-22T02:24:05.285Z,19.93
2023-02-22T02:26:35.282Z,19.92
2023-02-22T02:29:05.287Z,19.89
2023-02-22T02:31:35.606Z,19.88
2023-02-22T02:34:16.461Z,19.86
2023-02-22T02:36:46.931Z,19.84
2023-02-22T02:39:16.977Z,19.83
2023-02-22T02:41:48.304Z,19.81
2023-02-22T02:44:18.153Z,19.81
2023-02-22T02:46:50.614Z,19.80
2023-02-22T02:49:22.835Z,19.79
2023-02-22T02:51:52.598Z,19.78
2023-02-22T02:54:21.380Z,19.77
2023-02-22T02:56:48.422Z,19.75
2023-02-22T02:59:18.384Z,19.72
2023-02-22T03:01:48.435Z,19.73
2023-02-22T03:04:15.762Z,19.71
2023-02-22T03:06:44.677Z,19.70
2023-02-22T03:09:18.997Z,19.68
2023-02-22T03:11:51.153Z,19.67
2023-02-22T03:14:21.210Z,19.67
2023-02-22T03:16:52.731Z,19.65
2023-02-22T03:19:23.083Z,19.65
2023-02-22T03:21:56.446Z,19.62
2023-02-22T03:24:26.336Z,19.62
2023-02-22T03:26:59.747Z,19.61
2023-02-22T03:29:28.382Z,19.58
2023-02-22T03:32:01.868Z,19.57
2023-02-22T03:34:32.580Z,19.56
2023-02-22T03:37:02.942Z,19.54
2023-02-22T03:39:32.120Z,19.54
2023-02-22T03:42:04.876Z,19.52
2023-02-22T03:44:33.227Z,19.52
2023-02-22T03:47:02.724Z,19.51
2023-02-22T03:49:30.311Z,19.52
2023-02-22T03:51:57.557Z,19.48
2023-02-22T03:54:24.922Z,19.48
2023-02-22T03:56:54.803Z,19.47
2023-02-22T03:59:25.769Z,19.45
2023-02-22T04:01:53.126Z,19.44
2023-02-22T04:04:21.612Z,19.41
2023-02-22T04:06:48.699Z,19.42
2023-02-22T04:09:15.815Z,19.41
2023-02-22T04:11:42.866Z,19.39
2023-02-22T04:14:09.987Z,19.40
2023-02-22T04:16:36.955Z,19.37
2023-02-22T04:19:04.066Z,19.36
2023-02-22T04:21:31.106Z,19.36
2023-02-22T04:23:58.548Z,19.33
2023-02-22T04:26:25.547Z,19.33
2023-02-22T04:28:52.803Z,19.30
2023-02-22T04:31:20.153Z,19.30
2023-02-22T04:33:47.330Z,19.27
2023-02-22T04:36:16.325Z,19.28
2023-02-22T04:38:43.798Z,19.27
2023-02-22T04:41:11.810Z,19.24
2023-02-22T04:43:38.884Z,19.26
2023-02-22T04:46:06.045Z,19.24
2023-02-22T04:48:33.145Z,19.22
2023-02-22T04:51:00.251Z,19.22
2023-02-22T04:53:27.296Z,19.20
2023-02-22T04:55:54.373Z,19.18
2023-02-22T04:58:21.384Z,19.17
2023-02-22T05:00:48.423Z,19.16
2023-02-22T05:03:15.512Z,19.16
2023-02-22T05:05:42.513Z,19.15
2023-02-22T05:08:09.628Z,19.13
2023-02-22T05:10:36.632Z,19.13
2023-02-22T05:13:04.277Z,19.10
2023-02-22T05:15:31.248Z,19.09
2023-02-22T05:17:58.472Z,19.07
2023-02-22T05:20:28.238Z,19.08
2023-02-22T05:22:55.838Z,19.10
2023-02-22T05:25:23.076Z,19.16
2023-02-22T05:27:51.290Z,19.24
2023-02-22T05:30:18.539Z,19.28
2023-02-22T05:32:47.009Z,19.35
2023-02-22T05:35:14.332Z,19.39
2023-02-22T05:37:41.333Z,19.46
2023-02-22T05:40:08.456Z,19.53
2023-02-22T05:42:35.588Z,19.61
2023-02-22T05:45:02.587Z,19.69
2023-02-22T05:47:29.470Z,19.76
2023-02-22T05:49:56.584Z,19.83
2023-02-22T05:52:23.707Z,19.90
2023-02-22T05:54:51.206Z,19.97
2023-02-22T05:57:18.201Z,20.05
2023-02-22T05:59:45.194Z,20.09
2023-02-22T06:02:12.228Z,20.14
2023-02-22T06:04:40.516Z,20.21
2023-02-22T06:07:07.518Z,20.26
2023-02-22T06:09:34.525Z,20.31
2023-02-22T06:12:01.554Z,20.36
2023-02-22T06:14:28.527Z,20.42
2023-02-22T06:16:56.374Z,20.47
2023-02-22T06:19:23.497Z,20.51
2023-02-22T06:21:52.243Z,20.55
2023-02-22T06:24:19.535Z,20.59
2023-02-22T06:26:46.782Z,20.64
2023-02-22T06:29:14.034Z,20.69
2023-02-22T06:31:41.151Z,20.73
2023-02-22T06:34:08.406Z,20.77
2023-02-22T06:36:35.429Z,20.80
2023-02-22T06:39:02.409Z,20.82
2023-02-22T06:41:29.516Z,20.84
2023-02-22T06:43:56.623Z,20.86
2023-02-22T06:46:23.643Z,20.88
2023-02-22T06:48:52.095Z,20.90
2023-02-22T06:51:19.371Z,20.91
2023-02-22T06:53:46.444Z,20.94
2023-02-22T06:56:13.571Z,20.94
2023-02-22T06:58:40.704Z,20.95
2023-02-22T07:01:08.277Z,20.96
2023-02-22T07:03:36.215Z,20.95
2023-02-22T07:06:03.255Z,20.93
2023-02-22T07:08:30.378Z,20.94
2023-02-22T07:10:57.503Z,20.92
2023-02-22T07:13:24.506Z,20.89
2023-02-22T07:15:51.653Z,20.92
2023-02-22T07:18:18.799Z,20.92
2023-02-22T07:20:46.114Z,20.88
2023-02-22T07:23:16.129Z,20.85
2023-02-22T07:25:43.624Z,20.88
2023-02-22T07:28:11.453Z,20.91
2023-02-22T07:30:38.608Z,20.95
2023-02-22T07:33:07.215Z,20.84
2023-02-22T07:35:37.126Z,20.82
2023-02-22T07:38:06.536Z,20.80
2023-02-22T07:40:33.785Z,20.84
2023-02-22T07:43:02.243Z,20.82
2023-02-22T07:45:30.862Z,20.80
2023-02-22T07:47:58.387Z,20.81
2023-02-22T07:50:26.275Z,20.82
2023-02-22T07:52:55.032Z,20.78
2023-02-22T07:55:23.482Z,20.78
2023-02-22T07:57:51.834Z,20.77
2023-02-22T08:00:21.915Z,20.76
2023-02-22T08:02:48.933Z,20.75
2023-02-22T08:05:16.229Z,20.72
2023-02-22T08:07:43.744Z,20.72
2023-02-22T08:10:11.740Z,20.72
2023-02-22T08:12:38.871Z,20.71
2023-02-22T08:15:07.943Z,20.67
2023-02-22T08:17:35.179Z,20.49
2023-02-22T08:20:02.312Z,20.59
2023-02-22T08:22:29.784Z,20.64
2023-02-22T08:24:56.970Z,20.63
2023-02-22T08:27:25.673Z,20.61
2023-02-22T08:29:52.913Z,20.63
2023-02-22T08:32:20.723Z,20.70
2023-02-22T08:34:48.362Z,20.71
2023-02-22T08:37:17.643Z,20.75
2023-02-22T08:39:45.363Z,20.71
2023-02-22T08:42:12.892Z,20.73
2023-02-22T08:44:40.926Z,20.71
2023-02-22T08:47:08.456Z,20.70
2023-02-22T08:49:36.294Z,20.63
2023-02-22T08:52:03.540Z,20.62
2023-02-22T08:54:30.733Z,20.59
2023-02-22T08:56:57.851Z,20.54
2023-02-22T08:59:25.138Z,20.56
2023-02-22T09:01:52.407Z,20.54
2023-02-22T09:04:19.506Z,20.47
2023-02-22T09:06:52.066Z,20.44
2023-02-22T09:09:21.858Z,20.45
2023-02-22T09:11:51.440Z,20.44
2023-02-22T09:14:19.755Z,20.43
2023-02-22T09:16:47.045Z,20.38
2023-02-22T09:19:14.116Z,20.41
2023-02-22T09:21:41.241Z,20.36
2023-02-22T09:24:09.270Z,20.34
2023-02-22T09:26:39.685Z,20.30
2023-02-22T09:29:10.156Z,20.27
2023-02-22T09:31:38.482Z,20.29
2023-02-22T09:34:14.152Z,20.27
2023-02-22T09:36:41.851Z,20.23
2023-02-22T09:39:11.611Z,20.23
2023-02-22T09:41:44.251Z,20.20
2023-02-22T09:44:15.771Z,20.16
2023-02-22T09:46:46.146Z,20.17
2023-02-22T09:49:14.490Z,20.11
2023-02-22T09:51:45.001Z,20.12
2023-02-22T09:54:15.357Z,20.10
2023-02-22T09:56:43.913Z,20.07
2023-02-22T09:59:13.810Z,20.07
2023-02-22T10:01:45.225Z,20.01
2023-02-22T10:04:19.144Z,19.98
2023-02-22T10:06:49.272Z,19.97
2023-02-22T10:09:16.311Z,19.93
2023-02-22T10:11:49.040Z,19.91
2023-02-22T10:14:16.405Z,19.90
2023-02-22T10:16:44.835Z,19.91
2023-02-22T10:19:15.243Z,19.90
2023-02-22T10:21:45.506Z,19.86
2023-02-22T10:24:20.620Z,19.90
2023-02-22T10:26:47.781Z,19.86
2023-02-22T10:29:18.227Z,19.87
2023-02-22T10:31:47.661Z,19.91
2023-02-22T10:34:16.817Z,19.99
2023-02-22T10:36:45.602Z,20.03
2023-02-22T10:39:15.833Z,20.09
2023-02-22T10:41:47.397Z,20.15
2023-02-22T10:44:14.563Z,20.19
2023-02-22T10:46:42.520Z,20.20
2023-02-22T10:49:11.515Z,20.25
2023-02-22T10:51:39.770Z,20.31
2023-02-22T10:54:20.464Z,20.36
2023-02-22T10:56:49.817Z,20.40
2023-02-22T10:59:20.341Z,20.43
2023-02-22T11:01:47.577Z,20.45
2023-02-22T11:04:17.893Z,20.46
2023-02-22T11:06:48.517Z,20.49
2023-02-22T11:09:18.495Z,20.47
2023-02-22T11:11:47.068Z,20.48
2023-02-22T11:14:17.358Z,20.51
2023-02-22T11:16:50.875Z,20.53
2023-02-22T11:19:21.275Z,20.53
2023-02-22T11:21:51.786Z,20.55
2023-02-22T11:24:20.576Z,20.54
2023-02-22T11:26:49.594Z,20.52
2023-02-22T11:29:19.831Z,20.53
2023-02-22T11:31:49.814Z,20.52
2023-02-22T11:34:20.190Z,20.50
2023-02-22T11:36:47.254Z,20.48
2023-02-22T11:39:17.575Z,20.47
2023-02-22T11:41:44.860Z,20.44
2023-02-22T11:44:15.311Z,20.45
2023-02-22T11:46:43.297Z,20.43
2023-02-22T11:49:12.237Z,20.37
2023-02-22T11:51:42.454Z,20.36
2023-02-22T11:54:12.544Z,20.38
2023-02-22T11:56:44.624Z,20.35
2023-02-22T11:59:14.993Z,20.32
2023-02-22T12:01:42.308Z,20.27
2023-02-22T12:04:09.775Z,20.31
2023-02-22T12:06:40.879Z,20.32
2023-02-22T12:09:14.396Z,20.27
2023-02-22T12:11:47.121Z,20.22
2023-02-22T12:14:18.071Z,20.22
2023-02-22T12:16:48.232Z,20.18
2023-02-22T12:19:18.617Z,20.22
2023-02-22T12:21:48.925Z,20.20
2023-02-22T12:24:19.529Z,20.20
2023-02-22T12:26:49.081Z,20.15
2023-02-22T12:29:16.659Z,20.17
2023-02-22T12:31:46.908Z,20.17
2023-02-22T12:34:22.341Z,20.14
2023-02-22T12:36:52.232Z,20.12
2023-02-22T12:39:22.346Z,20.13
2023-02-22T12:41:53.001Z,20.13
2023-02-22T12:44:25.315Z,20.13
2023-02-22T12:46:54.158Z,20.12
2023-02-22T12:49:24.483Z,20.11
2023-02-22T12:51:55.884Z,20.08
2023-02-22T12:54:26.343Z,20.02
2023-02-22T12:56:53.806Z,20.04
2023-02-22T12:59:26.212Z,20.01
2023-02-22T13:01:57.510Z,20.02
2023-02-22T13:04:24.759Z,19.99
2023-02-22T13:06:55.017Z,19.95
2023-02-22T13:09:32.056Z,19.95
2023-02-22T13:12:00.623Z,19.94
2023-02-22T13:14:30.786Z,19.94
2023-02-22T13:17:01.147Z,19.93
2023-02-22T13:19:31.295Z,19.90
2023-02-22T13:21:59.895Z,19.93
2023-02-22T13:24:33.066Z,19.90
2023-02-22T13:27:04.980Z,19.88
2023-02-22T13:29:35.111Z,19.86
2023-02-22T13:32:05.524Z,19.81
2023-02-22T13:34:35.717Z,19.84
2023-02-22T13:37:03.319Z,19.84
2023-02-22T13:39:33.565Z,19.84
2023-02-22T13:42:03.880Z,19.89
2023-02-22T13:44:31.374Z,19.89
2023-02-22T13:47:01.905Z,19.92
2023-02-22T13:49:29.497Z,19.97
2023-02-22T13:52:00.466Z,20.01
2023-02-22T13:54:29.866Z,20.08
2023-02-22T13:56:57.374Z,20.12
2023-02-22T13:59:28.069Z,20.19
2023-02-22T14:01:56.706Z,20.22
2023-02-22T14:04:27.257Z,20.24
2023-02-22T14:07:00.990Z,20.27
2023-02-22T14:09:31.318Z,20.30
2023-02-22T14:11:58.851Z,20.34
2023-02-22T14:14:26.270Z,20.35
2023-02-22T14:16:56.408Z,20.37
2023-02-22T14:19:25.330Z,20.41
2023-02-22T14:21:56.066Z,20.39
2023-02-22T14:24:23.477Z,20.38
2023-02-22T14:26:53.772Z,20.36
2023-02-22T14:29:22.095Z,20.34
2023-02-22T14:31:51.283Z,20.34
2023-02-22T14:34:18.933Z,20.35
2023-02-22T14:36:51.387Z,20.32
2023-02-22T14:39:21.271Z,20.33
2023-02-22T14:41:51.981Z,20.34
2023-02-22T14:44:22.308Z,20.34
2023-02-22T14:46:51.701Z,20.34
2023-02-22T14:49:22.098Z,20.33
2023-02-22T14:51:53.919Z,20.34
2023-02-22T14:54:25.954Z,20.34
2023-02-22T14:56:59.748Z,20.33
2023-02-22T14:59:28.310Z,20.33
2023-02-22T15:02:10.973Z,20.33
2023-02-22T15:04:39.122Z,20.32
2023-02-22T15:07:09.416Z,20.33
2023-02-22T15:09:37.959Z,20.31
2023-02-22T15:12:05.551Z,20.29
2023-02-22T15:14:38.203Z,20.29
2023-02-22T15:17:08.650Z,20.29
2023-02-22T15:19:39.373Z,20.30
2023-02-22T15:22:09.746Z,20.25
2023-02-22T15:24:37.985Z,20.27
2023-02-22T15:27:06.664Z,20.26
2023-02-22T15:29:36.806Z,20.25
2023-02-22T15:32:18.404Z,20.24
2023-02-22T15:34:46.039Z,20.26
2023-02-22T15:37:19.533Z,20.22
2023-02-22T15:39:46.758Z,20.23
2023-02-22T15:42:20.488Z,20.23
2023-02-22T15:44:48.926Z,20.22
2023-02-22T15:47:18.569Z,20.20
2023-02-22T15:49:45.687Z,20.19
2023-02-22T15:52:16.090Z,20.20
2023-02-22T15:54:45.225Z,20.16
2023-02-22T15:57:15.417Z,20.16
2023-02-22T15:59:44.387Z,20.12
2023-02-22T16:02:15.099Z,20.11
2023-02-22T16:04:48.419Z,20.11
2023-02-22T16:07:21.948Z,20.09
2023-02-22T16:09:49.909Z,20.07
2023-02-22T16:12:20.155Z,20.06
2023-02-22T16:14:49.796Z,20.03
2023-02-22T16:17:25.236Z,20.01
2023-02-22T16:19:53.558Z,20.00
2023-02-22T16:22:23.716Z,19.94
2023-02-22T16:24:52.985Z,19.94
2023-02-22T16:27:21.728Z,19.91
2023-02-22T16:29:52.048Z,19.89
2023-02-22T16:32:19.440Z,19.88
2023-02-22T16:34:48.469Z,19.87
2023-02-22T16:37:18.847Z,19.86
2023-02-22T16:39:46.339Z,19.84
2023-02-22T16:42:20.655Z,19.81
2023-02-22T16:44:47.866Z,19.78
2023-02-22T16:47:15.261Z,19.80
2023-02-22T16:49:42.864Z,19.80
2023-02-22T16:52:10.057Z,19.75
2023-02-22T16:54:42.110Z,19.74
2023-02-22T16:57:16.004Z,19.70
2023-02-22T16:59:43.350Z,19.67
2023-02-22T17:02:14.913Z,19.67
2023-02-22T17:04:42.142Z,19.64
2023-02-22T17:07:09.708Z,19.63
2023-02-22T17:09:36.827Z,19.59
2023-02-22T17:12:04.363Z,19.58
2023-02-22T17:14:33.873Z,19.56
2023-02-22T17:17:00.918Z,19.55
2023-02-22T17:19:27.897Z,19.52
2023-02-22T17:21:54.882Z,19.51
2023-02-22T17:24:23.486Z,19.47
2023-02-22T17:26:52.374Z,19.47
2023-02-22T17:29:19.388Z,19.45
2023-02-22T17:31:46.616Z,19.43
2023-02-22T17:34:13.598Z,19.43
2023-02-22T17:36:40.842Z,19.45
2023-02-22T17:39:10.927Z,19.51
2023-02-22T17:41:40.546Z,19.56
2023-02-22T17:44:08.147Z,19.58
2023-02-22T17:46:35.970Z,19.60
2023-02-22T17:49:03.664Z,19.63
2023-02-22T17:51:30.756Z,19.67
2023-02-22T17:53:57.763Z,19.71
2023-02-22T17:56:25.031Z,19.78
2023-02-22T17:58:53.828Z,19.84
2023-02-22T18:01:25.011Z,19.90
2023-02-22T18:03:52.363Z,19.99
2023-02-22T18:06:24.013Z,20.07
2023-02-22T18:08:56.070Z,20.13
2023-02-22T18:11:26.720Z,20.18
2023-02-22T18:13:57.142Z,20.23
2023-02-22T18:16:26.053Z,20.28
2023-02-22T18:18:53.887Z,20.33
2023-02-22T18:21:21.339Z,20.36
2023-02-22T18:23:48.646Z,20.39
2023-02-22T18:26:16.998Z,20.42
2023-02-22T18:28:44.003Z,20.48
2023-02-22T18:31:15.114Z,20.49
2023-02-22T18:33:43.974Z,20.50
2023-02-22T18:36:12.468Z,20.54
2023-02-22T18:38:43.446Z,20.54
2023-02-22T18:41:13.164Z,20.57
2023-02-22T18:43:40.942Z,20.57
2023-02-22T18:46:11.033Z,20.57
2023-02-22T18:48:39.099Z,20.57
2023-02-22T18:51:08.633Z,20.58
2023-02-22T18:53:37.102Z,20.59
2023-02-22T18:56:05.518Z,20.61
2023-02-22T18:58:33.262Z,20.62
2023-02-22T19:01:01.184Z,20.62
2023-02-22T19:03:28.484Z,20.62
2023-02-22T19:05:56.491Z,20.62
2023-02-22T19:08:23.504Z,20.58
2023-02-22T19:10:50.527Z,20.58
2023-02-22T19:13:17.905Z,20.59
2023-02-22T19:15:44.994Z,20.59
2023-02-22T19:18:12.099Z,20.59
2023-02-22T19:23:10.710Z,20.60
2023-02-22T19:25:40.703Z,20.59
2023-02-22T19:28:07.746Z,20.58
2023-02-22T19:30:34.899Z,20.55
2023-02-22T19:33:05.026Z,20.54
2023-02-22T19:35:32.293Z,20.54
2023-02-22T19:37:59.272Z,20.52
2023-02-22T19:40:26.690Z,20.52
2023-02-22T19:42:55.011Z,20.55
2023-02-22T19:45:23.023Z,20.56
2023-02-22T19:47:53.885Z,20.55
2023-02-22T19:50:21.495Z,20.57
2023-02-22T19:52:48.901Z,20.60
2023-02-22T19:55:16.188Z,20.64
2023-02-22T19:57:46.746Z,20.70
2023-02-22T20:00:14.599Z,20.75
2023-02-22T20:02:41.926Z,20.78
2023-02-22T20:05:12.205Z,20.82
2023-02-22T20:07:39.239Z,20.83
2023-02-22T20:10:07.466Z,20.88
2023-02-22T20:12:34.630Z,20.90
2023-02-22T20:15:01.810Z,20.92
2023-02-22T20:17:28.880Z,20.95
2023-02-22T20:19:55.844Z,20.96
2023-02-22T20:22:22.833Z,20.95
2023-02-22T20:24:50.107Z,20.96
2023-02-22T20:27:17.140Z,20.96
2023-02-22T20:29:44.146Z,20.97
2023-02-22T20:32:12.785Z,20.97
2023-02-22T20:34:40.013Z,20.97
2023-02-22T20:37:07.216Z,20.98
2023-02-22T20:39:34.393Z,20.97
2023-02-22T20:42:03.127Z,20.98
2023-02-22T20:44:30.459Z,20.99
2023-02-22T20:46:57.665Z,20.97
2023-02-22T20:49:26.108Z,20.95
2023-02-22T20:51:53.301Z,20.94
2023-02-22T20:54:20.585Z,20.94
2023-02-22T20:56:47.876Z,20.96
2023-02-22T20:59:16.353Z,20.96
2023-02-22T21:01:43.960Z,20.94
2023-02-22T21:04:11.508Z,20.91
2023-02-22T21:06:39.776Z,20.94
2023-02-22T21:09:09.084Z,20.92
2023-02-22T21:11:36.196Z,20.95
2023-02-22T21:14:03.982Z,20.94
2023-02-22T21:16:32.456Z,20.91
2023-02-22T21:19:01.577Z,20.92
2023-02-22T21:21:28.995Z,20.89
2023-02-22T21:23:57.026Z,20.88
2023-02-22T21:26:25.318Z,20.85
2023-02-22T21:28:52.851Z,20.84
2023-02-22T21:31:22.106Z,20.81
2023-02-22T21:33:51.030Z,20.79
2023-02-22T21:36:18.234Z,20.76
2023-02-22T21:38:47.104Z,20.72
2023-02-22T21:41:15.922Z,20.67
2023-02-22T21:43:44.220Z,20.64
2023-02-22T21:46:11.433Z,20.62
2023-02-22T21:48:39.827Z,20.60
2023-02-22T21:51:09.723Z,20.57
2023-02-22T21:53:36.951Z,20.55
2023-02-22T21:56:05.765Z,20.52
2023-02-22T21:58:32.834Z,20.51
2023-02-22T22:01:04.781Z,20.48
2023-02-22T22:03:31.956Z,20.46
2023-02-22T22:06:00.840Z,20.49
2023-02-22T22:08:31.543Z,20.44
2023-02-22T22:10:58.825Z,20.40
2023-02-22T22:13:28.413Z,20.39
2023-02-22T22:15:55.521Z,20.36
2023-02-22T22:18:22.451Z,20.45
2023-02-22T22:20:52.284Z,20.41
2023-02-22T22:23:19.824Z,20.36
2023-02-22T22:25:47.010Z,20.33
2023-02-22T22:28:14.047Z,20.30
2023-02-22T22:30:42.983Z,20.26
2023-02-22T22:33:11.716Z,20.24
2023-02-22T22:35:39.581Z,20.23
2023-02-22T22:38:07.221Z,20.20
2023-02-22T22:40:34.839Z,20.17
2023-02-22T22:43:01.908Z,20.15
2023-02-22T22:45:28.986Z,20.12
2023-02-22T22:47:57.444Z,20.11
2023-02-22T22:50:27.008Z,20.10
2023-02-22T22:52:55.988Z,20.05
2023-02-22T22:55:24.686Z,20.05
2023-02-22T22:57:52.801Z,20.03
2023-02-22T23:00:23.157Z,20.02
2023-02-22T23:02:50.247Z,19.99
2023-02-22T23:05:17.787Z,19.97
2023-02-22T23:07:45.549Z,19.97
2023-02-22T23:10:13.529Z,19.94
2023-02-22T23:12:43.079Z,19.93
2023-02-22T23:15:10.695Z,19.91
2023-02-22T23:17:42.725Z,19.89
2023-02-22T23:20:12.116Z,19.89
2023-02-22T23:22:40.740Z,19.86
2023-02-22T23:25:08.447Z,19.89
2023-02-22T23:27:35.480Z,19.98
2023-02-22T23:30:02.507Z,19.99
2023-02-22T23:32:29.753Z,20.07
2023-02-22T23:34:56.922Z,20.12
2023-02-22T23:37:24.232Z,20.20
2023-02-22T23:39:51.381Z,20.27
2023-02-22T23:42:18.462Z,20.34
2023-02-22T23:44:46.845Z,20.38
2023-02-22T23:47:16.452Z,20.43
2023-02-22T23:49:45.739Z,20.48
2023-02-22T23:52:13.722Z,20.54
2023-02-22T23:54:44.240Z,20.58
2023-02-22T23:57:11.326Z,20.62
2023-02-22T23:59:40.724Z,20.65
